Tauranga (NZTG)

Aerodrome — Elev 13
New Zealand
S037.40.18.998 E176.11.46.000
Loading chart...

Current Weather

NZTG 190430Z 11009KT 20KM SCT210 BKN230 13/07 Q1017 RMK AUTO VATSIM USE ONLY

Published 21 minutes ago

Airport Activity

Loading chart...
Loading chart...

Standard ATC Positions

CallsignRadio Name / Freq / Voice Room / TypeFrequencyType
NZCH-B_CTR Bay Approach
119.500
nzch-b_ctr
119.500
NZTG_TWR Tauranga Tower
118.300
nztg_twr
118.300
NZHN_DEL Hamilton Delivery
122.900
nzhn_del
122.900
NZTG_ATIS Tauranga ATIS
126.600
nztg_atis
126.600

Event ATC Positions

This airport has additional control positions that are designated for use only during major events.
These non-standard positions must not be staffed unless specifically activated by the VATNZ Airspace Director as part of an official VATNZ event.
At all other times, controllers should use the designated Standard ATC Positions.

CallsignRadio Name / Freq / Voice Room / TypeFrequencyType
NZCH-D_CTR Christchurch Director
129.200
nzch-d_ctr
129.200

Charts